sensor_id;sensor_type;location;lat;lon;timestamp;temperature;humidity
7666;DHT22;3875;46.562;4.898;2023-02-01T00:02:17;6.70;89.10
7666;DHT22;3875;46.562;4.898;2023-02-01T00:04:42;6.70;89.10
7666;DHT22;3875;46.562;4.898;2023-02-01T00:07:08;6.70;89.10
7666;DHT22;3875;46.562;4.898;2023-02-01T00:09:34;6.70;89.10
7666;DHT22;3875;46.562;4.898;2023-02-01T00:11:59;6.70;89.10
7666;DHT22;3875;46.562;4.898;2023-02-01T00:14:27;6.70;89.10
7666;DHT22;3875;46.562;4.898;2023-02-01T00:16:53;6.70;89.20
7666;DHT22;3875;46.562;4.898;2023-02-01T00:19:19;6.70;89.10
7666;DHT22;3875;46.562;4.898;2023-02-01T00:21:45;6.70;89.10
7666;DHT22;3875;46.562;4.898;2023-02-01T00:24:11;6.70;89.20
7666;DHT22;3875;46.562;4.898;2023-02-01T00:26:37;6.60;89.30
7666;DHT22;3875;46.562;4.898;2023-02-01T00:29:07;6.60;89.30
7666;DHT22;3875;46.562;4.898;2023-02-01T00:31:34;6.60;89.30
7666;DHT22;3875;46.562;4.898;2023-02-01T00:34:00;6.60;89.30
7666;DHT22;3875;46.562;4.898;2023-02-01T00:36:25;6.60;89.30
7666;DHT22;3875;46.562;4.898;2023-02-01T00:38:51;6.60;89.30
7666;DHT22;3875;46.562;4.898;2023-02-01T00:41:18;6.60;89.30
7666;DHT22;3875;46.562;4.898;2023-02-01T00:43:45;6.70;89.30
7666;DHT22;3875;46.562;4.898;2023-02-01T00:46:12;6.60;89.30
7666;DHT22;3875;46.562;4.898;2023-02-01T00:48:38;6.60;89.30
7666;DHT22;3875;46.562;4.898;2023-02-01T00:51:09;6.60;89.40
7666;DHT22;3875;46.562;4.898;2023-02-01T00:53:35;6.50;89.50
7666;DHT22;3875;46.562;4.898;2023-02-01T00:56:01;6.50;89.50
7666;DHT22;3875;46.562;4.898;2023-02-01T00:58:27;6.50;89.60
7666;DHT22;3875;46.562;4.898;2023-02-01T01:01:15;6.50;89.60
7666;DHT22;3875;46.562;4.898;2023-02-01T01:03:44;6.50;89.60
7666;DHT22;3875;46.562;4.898;2023-02-01T01:06:12;6.50;89.70
7666;DHT22;3875;46.562;4.898;2023-02-01T01:08:39;6.40;89.70
7666;DHT22;3875;46.562;4.898;2023-02-01T01:11:13;6.50;89.60
7666;DHT22;3875;46.562;4.898;2023-02-01T01:13:40;6.50;89.50
7666;DHT22;3875;46.562;4.898;2023-02-01T01:16:07;6.40;89.40
7666;DHT22;3875;46.562;4.898;2023-02-01T01:18:34;6.40;89.50
7666;DHT22;3875;46.562;4.898;2023-02-01T01:21:01;6.30;89.60
7666;DHT22;3875;46.562;4.898;2023-02-01T01:23:27;6.30;89.80
7666;DHT22;3875;46.562;4.898;2023-02-01T01:25:53;6.30;90.00
7666;DHT22;3875;46.562;4.898;2023-02-01T01:28:19;6.30;90.10
7666;DHT22;3875;46.562;4.898;2023-02-01T01:30:44;6.30;90.20
7666;DHT22;3875;46.562;4.898;2023-02-01T01:33:10;6.40;90.20
7666;DHT22;3875;46.562;4.898;2023-02-01T01:35:36;6.40;90.20
7666;DHT22;3875;46.562;4.898;2023-02-01T01:38:02;6.40;90.20
7666;DHT22;3875;46.562;4.898;2023-02-01T01:40:29;6.40;90.20
7666;DHT22;3875;46.562;4.898;2023-02-01T01:42:55;6.40;90.20
7666;DHT22;3875;46.562;4.898;2023-02-01T01:45:25;6.40;90.00
7666;DHT22;3875;46.562;4.898;2023-02-01T01:47:57;6.40;89.80
7666;DHT22;3875;46.562;4.898;2023-02-01T01:50:28;6.40;89.80
7666;DHT22;3875;46.562;4.898;2023-02-01T01:52:57;6.40;90.00
7666;DHT22;3875;46.562;4.898;2023-02-01T01:55:26;6.40;90.20
7666;DHT22;3875;46.562;4.898;2023-02-01T01:58:03;6.40;90.20
7666;DHT22;3875;46.562;4.898;2023-02-01T02:00:31;6.40;90.20
7666;DHT22;3875;46.562;4.898;2023-02-01T02:03:18;6.40;90.20
7666;DHT22;3875;46.562;4.898;2023-02-01T02:05:45;6.40;90.00
7666;DHT22;3875;46.562;4.898;2023-02-01T02:08:13;6.40;90.10
7666;DHT22;3875;46.562;4.898;2023-02-01T02:10:39;6.40;90.10
7666;DHT22;3875;46.562;4.898;2023-02-01T02:13:23;6.30;90.30
7666;DHT22;3875;46.562;4.898;2023-02-01T02:16:10;6.30;90.40
7666;DHT22;3875;46.562;4.898;2023-02-01T02:18:48;6.40;90.40
7666;DHT22;3875;46.562;4.898;2023-02-01T02:21:46;6.40;90.40
7666;DHT22;3875;46.562;4.898;2023-02-01T02:27:21;6.40;90.40
7666;DHT22;3875;46.562;4.898;2023-02-01T02:30:57;6.40;90.40
7666;DHT22;3875;46.562;4.898;2023-02-01T02:35:55;6.30;90.60
7666;DHT22;3875;46.562;4.898;2023-02-01T02:43:55;6.30;90.60
7666;DHT22;3875;46.562;4.898;2023-02-01T02:46:47;6.40;90.50
7666;DHT22;3875;46.562;4.898;2023-02-01T02:49:39;6.40;90.60
7666;DHT22;3875;46.562;4.898;2023-02-01T02:52:16;6.30;90.60
7666;DHT22;3875;46.562;4.898;2023-02-01T02:55:04;6.30;90.70
7666;DHT22;3875;46.562;4.898;2023-02-01T02:57:32;6.30;90.70
7666;DHT22;3875;46.562;4.898;2023-02-01T03:00:21;6.30;90.70
7666;DHT22;3875;46.562;4.898;2023-02-01T03:03:07;6.30;90.70
7666;DHT22;3875;46.562;4.898;2023-02-01T03:05:51;6.30;90.70
7666;DHT22;3875;46.562;4.898;2023-02-01T03:08:28;6.30;90.70
7666;DHT22;3875;46.562;4.898;2023-02-01T03:21:57;6.30;90.80
7666;DHT22;3875;46.562;4.898;2023-02-01T03:24:37;6.30;91.00
7666;DHT22;3875;46.562;4.898;2023-02-01T03:27:24;6.30;91.00
7666;DHT22;3875;46.562;4.898;2023-02-01T03:32:34;6.30;91.00
7666;DHT22;3875;46.562;4.898;2023-02-01T03:35:23;6.20;91.20
7666;DHT22;3875;46.562;4.898;2023-02-01T03:38:17;6.00;92.10
7666;DHT22;3875;46.562;4.898;2023-02-01T03:40:39;6.00;92.40
7666;DHT22;3875;46.562;4.898;2023-02-01T03:43:11;5.90;92.90
7666;DHT22;3875;46.562;4.898;2023-02-01T03:45:43;6.00;92.70
7666;DHT22;3875;46.562;4.898;2023-02-01T03:48:10;5.90;92.80
7666;DHT22;3875;46.562;4.898;2023-02-01T03:50:43;5.90;92.90
7666;DHT22;3875;46.562;4.898;2023-02-01T03:53:17;5.90;92.80
7666;DHT22;3875;46.562;4.898;2023-02-01T03:55:44;5.90;92.80
7666;DHT22;3875;46.562;4.898;2023-02-01T03:58:16;5.90;92.70
7666;DHT22;3875;46.562;4.898;2023-02-01T04:00:54;5.90;92.70
7666;DHT22;3875;46.562;4.898;2023-02-01T04:03:21;5.90;92.70
7666;DHT22;3875;46.562;4.898;2023-02-01T04:05:48;6.00;92.60
7666;DHT22;3875;46.562;4.898;2023-02-01T04:08:14;5.90;92.60
7666;DHT22;3875;46.562;4.898;2023-02-01T04:10:40;5.90;92.70
7666;DHT22;3875;46.562;4.898;2023-02-01T04:13:05;5.80;92.80
7666;DHT22;3875;46.562;4.898;2023-02-01T04:15:32;5.80;92.80
7666;DHT22;3875;46.562;4.898;2023-02-01T04:17:59;5.70;92.90
7666;DHT22;3875;46.562;4.898;2023-02-01T04:20:24;5.70;93.20
7666;DHT22;3875;46.562;4.898;2023-02-01T04:22:50;5.60;93.40
7666;DHT22;3875;46.562;4.898;2023-02-01T04:25:16;5.60;93.40
7666;DHT22;3875;46.562;4.898;2023-02-01T04:27:42;5.60;93.50
7666;DHT22;3875;46.562;4.898;2023-02-01T04:30:09;5.60;93.50
7666;DHT22;3875;46.562;4.898;2023-02-01T04:32:38;5.60;93.60
7666;DHT22;3875;46.562;4.898;2023-02-01T04:35:04;5.60;93.60
7666;DHT22;3875;46.562;4.898;2023-02-01T04:37:30;5.50;93.80
7666;DHT22;3875;46.562;4.898;2023-02-01T04:39:56;5.50;93.90
7666;DHT22;3875;46.562;4.898;2023-02-01T04:42:21;5.50;94.00
7666;DHT22;3875;46.562;4.898;2023-02-01T04:44:47;5.60;93.80
7666;DHT22;3875;46.562;4.898;2023-02-01T04:47:13;5.70;93.60
7666;DHT22;3875;46.562;4.898;2023-02-01T04:49:41;5.80;93.30
7666;DHT22;3875;46.562;4.898;2023-02-01T04:52:06;5.80;93.00
7666;DHT22;3875;46.562;4.898;2023-02-01T04:54:32;5.80;93.00
7666;DHT22;3875;46.562;4.898;2023-02-01T04:56:58;5.70;93.00
7666;DHT22;3875;46.562;4.898;2023-02-01T04:59:24;5.70;93.40
7666;DHT22;3875;46.562;4.898;2023-02-01T05:01:49;5.60;93.50
7666;DHT22;3875;46.562;4.898;2023-02-01T05:04:15;5.60;93.60
7666;DHT22;3875;46.562;4.898;2023-02-01T05:06:44;5.60;93.70
7666;DHT22;3875;46.562;4.898;2023-02-01T05:09:09;5.60;93.80
7666;DHT22;3875;46.562;4.898;2023-02-01T05:11:35;5.60;93.80
7666;DHT22;3875;46.562;4.898;2023-02-01T05:14:20;5.60;93.90
7666;DHT22;3875;46.562;4.898;2023-02-01T05:16:46;5.60;93.90
7666;DHT22;3875;46.562;4.898;2023-02-01T05:19:11;5.70;93.70
7666;DHT22;3875;46.562;4.898;2023-02-01T05:21:38;5.70;93.60
7666;DHT22;3875;46.562;4.898;2023-02-01T05:24:04;5.70;93.80
7666;DHT22;3875;46.562;4.898;2023-02-01T05:26:37;5.70;93.80
7666;DHT22;3875;46.562;4.898;2023-02-01T05:29:03;5.70;93.80
7666;DHT22;3875;46.562;4.898;2023-02-01T05:31:29;5.70;93.70
7666;DHT22;3875;46.562;4.898;2023-02-01T05:33:55;5.80;93.60
7666;DHT22;3875;46.562;4.898;2023-02-01T05:36:20;5.70;93.60
7666;DHT22;3875;46.562;4.898;2023-02-01T05:38:46;5.70;93.70
7666;DHT22;3875;46.562;4.898;2023-02-01T05:41:12;5.70;93.70
7666;DHT22;3875;46.562;4.898;2023-02-01T05:43:38;5.80;93.70
7666;DHT22;3875;46.562;4.898;2023-02-01T05:46:04;5.70;93.70
7666;DHT22;3875;46.562;4.898;2023-02-01T05:48:29;5.80;93.70
7666;DHT22;3875;46.562;4.898;2023-02-01T05:50:55;5.80;93.50
7666;DHT22;3875;46.562;4.898;2023-02-01T05:53:21;5.90;93.40
7666;DHT22;3875;46.562;4.898;2023-02-01T05:55:47;5.90;93.30
7666;DHT22;3875;46.562;4.898;2023-02-01T05:58:13;5.90;93.20
7666;DHT22;3875;46.562;4.898;2023-02-01T06:00:39;5.90;93.30
7666;DHT22;3875;46.562;4.898;2023-02-01T06:03:05;5.90;93.20
7666;DHT22;3875;46.562;4.898;2023-02-01T06:05:30;5.90;93.00
7666;DHT22;3875;46.562;4.898;2023-02-01T06:07:56;5.90;92.90
7666;DHT22;3875;46.562;4.898;2023-02-01T06:10:22;5.90;93.00
7666;DHT22;3875;46.562;4.898;2023-02-01T06:12:48;5.90;92.90
7666;DHT22;3875;46.562;4.898;2023-02-01T06:15:14;6.00;92.90
7666;DHT22;3875;46.562;4.898;2023-02-01T06:17:44;5.90;92.90
7666;DHT22;3875;46.562;4.898;2023-02-01T06:20:11;5.90;92.90
7666;DHT22;3875;46.562;4.898;2023-02-01T06:22:37;6.00;92.80
7666;DHT22;3875;46.562;4.898;2023-02-01T06:25:04;6.10;92.70
7666;DHT22;3875;46.562;4.898;2023-02-01T06:27:31;6.00;92.80
7666;DHT22;3875;46.562;4.898;2023-02-01T06:29:57;5.90;93.00
7666;DHT22;3875;46.562;4.898;2023-02-01T06:32:22;5.80;93.50
7666;DHT22;3875;46.562;4.898;2023-02-01T06:34:49;5.80;93.40
7666;DHT22;3875;46.562;4.898;2023-02-01T06:37:14;5.70;93.60
7666;DHT22;3875;46.562;4.898;2023-02-01T06:39:40;5.70;93.60
7666;DHT22;3875;46.562;4.898;2023-02-01T06:42:06;5.70;93.60
7666;DHT22;3875;46.562;4.898;2023-02-01T06:44:31;5.70;93.50
7666;DHT22;3875;46.562;4.898;2023-02-01T06:46:57;5.70;93.40
7666;DHT22;3875;46.562;4.898;2023-02-01T06:49:23;5.70;93.30
7666;DHT22;3875;46.562;4.898;2023-02-01T06:51:48;5.60;93.60
7666;DHT22;3875;46.562;4.898;2023-02-01T06:54:14;5.60;93.50
7666;DHT22;3875;46.562;4.898;2023-02-01T06:56:40;5.60;93.40
7666;DHT22;3875;46.562;4.898;2023-02-01T06:59:07;5.60;93.40
7666;DHT22;3875;46.562;4.898;2023-02-01T07:01:33;5.60;93.50
7666;DHT22;3875;46.562;4.898;2023-02-01T07:03:59;5.70;93.40
7666;DHT22;3875;46.562;4.898;2023-02-01T07:06:25;5.70;93.30
7666;DHT22;3875;46.562;4.898;2023-02-01T07:08:50;5.70;93.20
7666;DHT22;3875;46.562;4.898;2023-02-01T07:11:17;5.80;93.20
7666;DHT22;3875;46.562;4.898;2023-02-01T07:13:44;5.80;93.00
7666;DHT22;3875;46.562;4.898;2023-02-01T07:16:12;5.80;93.00
7666;DHT22;3875;46.562;4.898;2023-02-01T07:18:39;5.90;93.00
7666;DHT22;3875;46.562;4.898;2023-02-01T07:21:04;5.90;93.00
7666;DHT22;3875;46.562;4.898;2023-02-01T07:23:31;5.90;93.00
7666;DHT22;3875;46.562;4.898;2023-02-01T07:25:58;5.90;92.90
7666;DHT22;3875;46.562;4.898;2023-02-01T07:28:25;5.90;92.80
7666;DHT22;3875;46.562;4.898;2023-02-01T07:30:51;6.00;92.80
7666;DHT22;3875;46.562;4.898;2023-02-01T07:33:21;5.90;93.00
7666;DHT22;3875;46.562;4.898;2023-02-01T07:35:49;5.90;93.30
7666;DHT22;3875;46.562;4.898;2023-02-01T07:38:15;5.90;93.50
7666;DHT22;3875;46.562;4.898;2023-02-01T07:40:41;5.90;93.60
7666;DHT22;3875;46.562;4.898;2023-02-01T07:43:07;5.90;93.60
7666;DHT22;3875;46.562;4.898;2023-02-01T07:45:34;5.90;93.70
7666;DHT22;3875;46.562;4.898;2023-02-01T07:47:59;6.00;93.60
7666;DHT22;3875;46.562;4.898;2023-02-01T07:50:25;6.10;93.40
7666;DHT22;3875;46.562;4.898;2023-02-01T07:52:51;6.10;93.30
7666;DHT22;3875;46.562;4.898;2023-02-01T07:55:21;6.10;93.40
7666;DHT22;3875;46.562;4.898;2023-02-01T07:57:47;6.10;93.60
7666;DHT22;3875;46.562;4.898;2023-02-01T08:00:13;6.10;93.80
7666;DHT22;3875;46.562;4.898;2023-02-01T08:02:58;6.20;93.70
7666;DHT22;3875;46.562;4.898;2023-02-01T08:05:24;6.20;93.60
7666;DHT22;3875;46.562;4.898;2023-02-01T08:07:50;6.30;93.50
7666;DHT22;3875;46.562;4.898;2023-02-01T08:10:17;6.30;93.30
7666;DHT22;3875;46.562;4.898;2023-02-01T08:12:42;6.30;93.40
7666;DHT22;3875;46.562;4.898;2023-02-01T08:15:09;6.40;93.30
7666;DHT22;3875;46.562;4.898;2023-02-01T08:17:35;6.50;93.10
7666;DHT22;3875;46.562;4.898;2023-02-01T08:20:00;6.50;93.00
7666;DHT22;3875;46.562;4.898;2023-02-01T08:22:31;6.60;92.90
7666;DHT22;3875;46.562;4.898;2023-02-01T08:24:57;6.60;92.90
7666;DHT22;3875;46.562;4.898;2023-02-01T08:27:27;6.60;93.00
7666;DHT22;3875;46.562;4.898;2023-02-01T08:29:52;6.60;92.80
7666;DHT22;3875;46.562;4.898;2023-02-01T08:32:19;6.60;92.80
7666;DHT22;3875;46.562;4.898;2023-02-01T08:34:45;6.50;93.00
7666;DHT22;3875;46.562;4.898;2023-02-01T08:37:11;6.30;93.70
7666;DHT22;3875;46.562;4.898;2023-02-01T08:39:37;6.20;94.20
7666;DHT22;3875;46.562;4.898;2023-02-01T08:42:02;6.10;94.60
7666;DHT22;3875;46.562;4.898;2023-02-01T08:44:47;6.20;94.50
7666;DHT22;3875;46.562;4.898;2023-02-01T08:47:12;6.30;94.50
7666;DHT22;3875;46.562;4.898;2023-02-01T08:49:38;6.40;94.30
7666;DHT22;3875;46.562;4.898;2023-02-01T08:52:04;6.50;94.10
7666;DHT22;3875;46.562;4.898;2023-02-01T08:54:29;6.50;94.10
7666;DHT22;3875;46.562;4.898;2023-02-01T08:56:55;6.50;94.20
7666;DHT22;3875;46.562;4.898;2023-02-01T08:59:21;6.60;94.20
7666;DHT22;3875;46.562;4.898;2023-02-01T09:01:47;6.60;94.30
7666;DHT22;3875;46.562;4.898;2023-02-01T09:04:13;6.50;94.50
7666;DHT22;3875;46.562;4.898;2023-02-01T09:06:40;6.40;94.40
7666;DHT22;3875;46.562;4.898;2023-02-01T09:09:06;6.30;94.60
7666;DHT22;3875;46.562;4.898;2023-02-01T09:11:32;6.30;94.60
7666;DHT22;3875;46.562;4.898;2023-02-01T09:13:57;6.50;94.50
7666;DHT22;3875;46.562;4.898;2023-02-01T09:16:23;6.60;94.30
7666;DHT22;3875;46.562;4.898;2023-02-01T09:18:49;6.60;93.80
7666;DHT22;3875;46.562;4.898;2023-02-01T09:21:14;6.60;93.60
7666;DHT22;3875;46.562;4.898;2023-02-01T09:23:40;6.70;93.60
7666;DHT22;3875;46.562;4.898;2023-02-01T09:26:06;6.80;93.60
7666;DHT22;3875;46.562;4.898;2023-02-01T09:28:32;6.90;93.40
7666;DHT22;3875;46.562;4.898;2023-02-01T09:30:59;7.00;93.10
7666;DHT22;3875;46.562;4.898;2023-02-01T09:33:26;6.90;92.90
7666;DHT22;3875;46.562;4.898;2023-02-01T09:36:03;6.90;93.10
7666;DHT22;3875;46.562;4.898;2023-02-01T09:38:29;7.00;93.20
7666;DHT22;3875;46.562;4.898;2023-02-01T09:40:56;7.00;93.10
7666;DHT22;3875;46.562;4.898;2023-02-01T09:46:31;7.00;92.80
7666;DHT22;3875;46.562;4.898;2023-02-01T09:49:01;7.10;92.80
7666;DHT22;3875;46.562;4.898;2023-02-01T09:51:38;7.20;92.80
7666;DHT22;3875;46.562;4.898;2023-02-01T09:54:27;7.20;92.60
7666;DHT22;3875;46.562;4.898;2023-02-01T09:57:01;7.30;92.50
7666;DHT22;3875;46.562;4.898;2023-02-01T09:59:37;7.30;92.40
7666;DHT22;3875;46.562;4.898;2023-02-01T10:02:17;7.40;92.40
7666;DHT22;3875;46.562;4.898;2023-02-01T10:04:44;7.30;92.20
7666;DHT22;3875;46.562;4.898;2023-02-01T10:10:04;7.50;92.20
7666;DHT22;3875;46.562;4.898;2023-02-01T10:13:01;7.50;92.10
7666;DHT22;3875;46.562;4.898;2023-02-01T10:21:40;7.80;91.60
7666;DHT22;3875;46.562;4.898;2023-02-01T10:24:33;7.90;91.50
7666;DHT22;3875;46.562;4.898;2023-02-01T10:27:17;8.00;91.10
7666;DHT22;3875;46.562;4.898;2023-02-01T10:29:46;8.10;90.70
7666;DHT22;3875;46.562;4.898;2023-02-01T10:32:23;8.10;90.70
7666;DHT22;3875;46.562;4.898;2023-02-01T10:35:00;8.20;90.50
7666;DHT22;3875;46.562;4.898;2023-02-01T10:37:28;8.20;90.00
7666;DHT22;3875;46.562;4.898;2023-02-01T10:40:00;8.20;90.10
7666;DHT22;3875;46.562;4.898;2023-02-01T10:42:28;8.60;90.80
7666;DHT22;3875;46.562;4.898;2023-02-01T10:44:59;8.90;89.60
7666;DHT22;3875;46.562;4.898;2023-02-01T10:47:26;9.00;88.30
7666;DHT22;3875;46.562;4.898;2023-02-01T10:50:02;9.20;87.80
7666;DHT22;3875;46.562;4.898;2023-02-01T10:52:34;9.40;87.30
7666;DHT22;3875;46.562;4.898;2023-02-01T10:57:57;9.60;85.60
7666;DHT22;3875;46.562;4.898;2023-02-01T11:00:24;9.30;85.40
7666;DHT22;3875;46.562;4.898;2023-02-01T11:02:50;9.40;86.50
7666;DHT22;3875;46.562;4.898;2023-02-01T11:05:16;9.50;85.70
7666;DHT22;3875;46.562;4.898;2023-02-01T11:07:50;9.50;85.40
7666;DHT22;3875;46.562;4.898;2023-02-01T11:10:37;9.40;85.40
7666;DHT22;3875;46.562;4.898;2023-02-01T11:13:04;9.60;85.70
7666;DHT22;3875;46.562;4.898;2023-02-01T11:15:30;9.50;84.30
7666;DHT22;3875;46.562;4.898;2023-02-01T11:17:56;9.40;84.40
7666;DHT22;3875;46.562;4.898;2023-02-01T11:20:39;9.20;84.20
7666;DHT22;3875;46.562;4.898;2023-02-01T11:23:16;8.90;84.90
7666;DHT22;3875;46.562;4.898;2023-02-01T11:26:15;8.70;85.10
7666;DHT22;3875;46.562;4.898;2023-02-01T11:28:52;8.50;85.70
7666;DHT22;3875;46.562;4.898;2023-02-01T11:31:19;8.50;86.20
7666;DHT22;3875;46.562;4.898;2023-02-01T11:33:50;8.60;86.60
7666;DHT22;3875;46.562;4.898;2023-02-01T11:36:19;8.50;86.20
7666;DHT22;3875;46.562;4.898;2023-02-01T11:42:14;8.50;86.50
7666;DHT22;3875;46.562;4.898;2023-02-01T11:44:42;8.60;86.50
7666;DHT22;3875;46.562;4.898;2023-02-01T11:47:25;8.60;86.50
7666;DHT22;3875;46.562;4.898;2023-02-01T11:49:54;8.60;85.90
7666;DHT22;3875;46.562;4.898;2023-02-01T11:52:38;8.70;85.90
7666;DHT22;3875;46.562;4.898;2023-02-01T11:55:34;8.70;85.10
7666;DHT22;3875;46.562;4.898;2023-02-01T12:04:05;8.80;85.40
7666;DHT22;3875;46.562;4.898;2023-02-01T12:07:03;8.80;85.40
7666;DHT22;3875;46.562;4.898;2023-02-01T12:09:50;8.80;84.80
7666;DHT22;3875;46.562;4.898;2023-02-01T12:15:18;8.70;85.80
7666;DHT22;3875;46.562;4.898;2023-02-01T12:26:33;8.60;85.30
7666;DHT22;3875;46.562;4.898;2023-02-01T12:32:04;8.60;84.10
7666;DHT22;3875;46.562;4.898;2023-02-01T12:38:05;8.60;83.40
7666;DHT22;3875;46.562;4.898;2023-02-01T12:44:11;9.10;81.90
7666;DHT22;3875;46.562;4.898;2023-02-01T12:47:39;9.30;81.70
7666;DHT22;3875;46.562;4.898;2023-02-01T12:50:45;9.20;80.70
7666;DHT22;3875;46.562;4.898;2023-02-01T12:53:27;9.20;80.70
7666;DHT22;3875;46.562;4.898;2023-02-01T12:55:58;9.20;80.70
7666;DHT22;3875;46.562;4.898;2023-02-01T12:58:43;9.30;80.40
7666;DHT22;3875;46.562;4.898;2023-02-01T13:01:30;9.30;80.00
7666;DHT22;3875;46.562;4.898;2023-02-01T13:09:28;9.40;80.50
7666;DHT22;3875;46.562;4.898;2023-02-01T13:11:59;9.40;80.80
7666;DHT22;3875;46.562;4.898;2023-02-01T13:14:37;9.50;80.80
7666;DHT22;3875;46.562;4.898;2023-02-01T13:17:10;9.70;81.10
7666;DHT22;3875;46.562;4.898;2023-02-01T13:19:59;9.60;79.70
7666;DHT22;3875;46.562;4.898;2023-02-01T13:22:39;9.40;79.80
7666;DHT22;3875;46.562;4.898;2023-02-01T13:25:17;9.40;81.10
7666;DHT22;3875;46.562;4.898;2023-02-01T13:27:45;9.30;80.30
7666;DHT22;3875;46.562;4.898;2023-02-01T13:30:19;9.20;81.10
7666;DHT22;3875;46.562;4.898;2023-02-01T13:33:29;9.30;80.90
7666;DHT22;3875;46.562;4.898;2023-02-01T13:38:45;9.30;81.70
7666;DHT22;3875;46.562;4.898;2023-02-01T13:44:04;9.40;81.10
7666;DHT22;3875;46.562;4.898;2023-02-01T13:46:40;9.20;80.60
7666;DHT22;3875;46.562;4.898;2023-02-01T13:49:06;9.20;80.90
7666;DHT22;3875;46.562;4.898;2023-02-01T13:51:40;9.20;80.90
7666;DHT22;3875;46.562;4.898;2023-02-01T13:54:06;9.30;81.40
7666;DHT22;3875;46.562;4.898;2023-02-01T13:56:43;9.30;81.40
7666;DHT22;3875;46.562;4.898;2023-02-01T14:10:56;9.60;81.30
7666;DHT22;3875;46.562;4.898;2023-02-01T14:13:40;9.60;81.20
7666;DHT22;3875;46.562;4.898;2023-02-01T14:21:24;9.50;81.40
7666;DHT22;3875;46.562;4.898;2023-02-01T14:26:23;9.30;81.10
7666;DHT22;3875;46.562;4.898;2023-02-01T14:31:58;9.30;81.50
7666;DHT22;3875;46.562;4.898;2023-02-01T14:34:53;9.20;81.00
7666;DHT22;3875;46.562;4.898;2023-02-01T14:42:44;9.00;80.40
7666;DHT22;3875;46.562;4.898;2023-02-01T14:47:55;9.00;81.70
7666;DHT22;3875;46.562;4.898;2023-02-01T14:50:43;8.90;80.70
7666;DHT22;3875;46.562;4.898;2023-02-01T14:53:12;8.70;80.50
7666;DHT22;3875;46.562;4.898;2023-02-01T15:01:31;8.50;81.10
7666;DHT22;3875;46.562;4.898;2023-02-01T15:04:10;8.50;81.00
7666;DHT22;3875;46.562;4.898;2023-02-01T15:06:40;8.40;81.10
7666;DHT22;3875;46.562;4.898;2023-02-01T15:09:11;8.50;81.30
7666;DHT22;3875;46.562;4.898;2023-02-01T15:14:34;8.30;81.40
7666;DHT22;3875;46.562;4.898;2023-02-01T15:17:01;8.20;81.60
7666;DHT22;3875;46.562;4.898;2023-02-01T15:19:28;8.20;81.50
7666;DHT22;3875;46.562;4.898;2023-02-01T15:21:58;8.10;81.50
7666;DHT22;3875;46.562;4.898;2023-02-01T15:24:29;8.10;81.20
7666;DHT22;3875;46.562;4.898;2023-02-01T15:26:56;8.10;81.00
7666;DHT22;3875;46.562;4.898;2023-02-01T15:29:23;8.10;80.80
7666;DHT22;3875;46.562;4.898;2023-02-01T15:31:53;8.00;81.00
7666;DHT22;3875;46.562;4.898;2023-02-01T15:34:20;8.00;81.20
7666;DHT22;3875;46.562;4.898;2023-02-01T15:36:47;8.00;81.30
7666;DHT22;3875;46.562;4.898;2023-02-01T15:39:33;8.10;81.10
7666;DHT22;3875;46.562;4.898;2023-02-01T15:42:12;8.10;80.80
7666;DHT22;3875;46.562;4.898;2023-02-01T15:44:43;8.10;80.80
7666;DHT22;3875;46.562;4.898;2023-02-01T15:47:25;8.10;81.00
7666;DHT22;3875;46.562;4.898;2023-02-01T15:49:53;8.20;81.00
7666;DHT22;3875;46.562;4.898;2023-02-01T15:52:24;8.20;80.30
7666;DHT22;3875;46.562;4.898;2023-02-01T15:54:58;8.20;80.30
7666;DHT22;3875;46.562;4.898;2023-02-01T15:57:35;8.20;80.20
7666;DHT22;3875;46.562;4.898;2023-02-01T16:00:07;8.20;80.20
7666;DHT22;3875;46.562;4.898;2023-02-01T16:02:44;8.20;79.80
7666;DHT22;3875;46.562;4.898;2023-02-01T16:05:36;8.10;79.60
7666;DHT22;3875;46.562;4.898;2023-02-01T16:08:25;8.20;79.70
7666;DHT22;3875;46.562;4.898;2023-02-01T16:11:14;8.10;79.50
7666;DHT22;3875;46.562;4.898;2023-02-01T16:13:39;8.20;79.80
7666;DHT22;3875;46.562;4.898;2023-02-01T16:16:07;8.10;79.60
7666;DHT22;3875;46.562;4.898;2023-02-01T16:18:39;8.00;78.40
7666;DHT22;3875;46.562;4.898;2023-02-01T16:21:05;8.00;78.30
7666;DHT22;3875;46.562;4.898;2023-02-01T16:23:33;8.00;78.80
7666;DHT22;3875;46.562;4.898;2023-02-01T16:25:58;8.10;79.20
7666;DHT22;3875;46.562;4.898;2023-02-01T16:28:25;8.10;78.50
7666;DHT22;3875;46.562;4.898;2023-02-01T16:30:51;8.00;77.80
7666;DHT22;3875;46.562;4.898;2023-02-01T16:33:19;7.90;78.20
7666;DHT22;3875;46.562;4.898;2023-02-01T16:35:47;7.90;78.20
7666;DHT22;3875;46.562;4.898;2023-02-01T16:38:15;7.80;77.80
7666;DHT22;3875;46.562;4.898;2023-02-01T16:40:44;7.90;78.80
7666;DHT22;3875;46.562;4.898;2023-02-01T16:43:20;7.80;77.90
7666;DHT22;3875;46.562;4.898;2023-02-01T16:45:47;7.80;77.70
7666;DHT22;3875;46.562;4.898;2023-02-01T16:48:20;7.70;77.30
7666;DHT22;3875;46.562;4.898;2023-02-01T16:50:49;7.70;76.80
7666;DHT22;3875;46.562;4.898;2023-02-01T16:53:16;7.70;76.80
7666;DHT22;3875;46.562;4.898;2023-02-01T16:55:43;7.70;77.30
7666;DHT22;3875;46.562;4.898;2023-02-01T16:58:09;7.70;77.60
7666;DHT22;3875;46.562;4.898;2023-02-01T17:00:35;7.70;77.30
7666;DHT22;3875;46.562;4.898;2023-02-01T17:03:04;7.70;77.70
7666;DHT22;3875;46.562;4.898;2023-02-01T17:05:32;7.70;77.60
7666;DHT22;3875;46.562;4.898;2023-02-01T17:08:04;7.70;77.20
7666;DHT22;3875;46.562;4.898;2023-02-01T17:10:31;7.70;77.40
7666;DHT22;3875;46.562;4.898;2023-02-01T17:12:56;7.60;77.40
7666;DHT22;3875;46.562;4.898;2023-02-01T17:15:24;7.60;77.80
7666;DHT22;3875;46.562;4.898;2023-02-01T17:17:51;7.70;78.10
7666;DHT22;3875;46.562;4.898;2023-02-01T17:20:22;7.70;78.40
7666;DHT22;3875;46.562;4.898;2023-02-01T17:22:49;7.80;78.50
7666;DHT22;3875;46.562;4.898;2023-02-01T17:25:20;7.80;78.60
7666;DHT22;3875;46.562;4.898;2023-02-01T17:27:47;7.80;78.60
7666;DHT22;3875;46.562;4.898;2023-02-01T17:30:13;7.80;78.60
7666;DHT22;3875;46.562;4.898;2023-02-01T17:32:40;7.80;78.30
7666;DHT22;3875;46.562;4.898;2023-02-01T17:35:20;7.80;78.50
7666;DHT22;3875;46.562;4.898;2023-02-01T17:37:47;7.80;78.60
7666;DHT22;3875;46.562;4.898;2023-02-01T17:40:13;7.70;78.80
7666;DHT22;3875;46.562;4.898;2023-02-01T17:42:39;7.70;78.80
7666;DHT22;3875;46.562;4.898;2023-02-01T17:48:06;7.60;78.90
7666;DHT22;3875;46.562;4.898;2023-02-01T17:50:35;7.60;79.10
7666;DHT22;3875;46.562;4.898;2023-02-01T17:53:02;7.60;79.20
7666;DHT22;3875;46.562;4.898;2023-02-01T17:55:32;7.60;79.20
7666;DHT22;3875;46.562;4.898;2023-02-01T17:57:59;7.50;78.80
7666;DHT22;3875;46.562;4.898;2023-02-01T18:00:24;7.40;79.20
7666;DHT22;3875;46.562;4.898;2023-02-01T18:02:50;7.40;79.50
7666;DHT22;3875;46.562;4.898;2023-02-01T18:07:47;7.40;79.50
7666;DHT22;3875;46.562;4.898;2023-02-01T18:10:13;7.40;79.30
7666;DHT22;3875;46.562;4.898;2023-02-01T18:12:39;7.40;79.40
7666;DHT22;3875;46.562;4.898;2023-02-01T18:15:20;7.40;79.80
7666;DHT22;3875;46.562;4.898;2023-02-01T18:17:46;7.40;79.60
7666;DHT22;3875;46.562;4.898;2023-02-01T18:20:33;7.40;79.80
7666;DHT22;3875;46.562;4.898;2023-02-01T18:23:00;7.40;79.90
7666;DHT22;3875;46.562;4.898;2023-02-01T18:25:29;7.40;79.80
7666;DHT22;3875;46.562;4.898;2023-02-01T18:27:58;7.40;79.80
7666;DHT22;3875;46.562;4.898;2023-02-01T18:30:28;7.40;79.90
7666;DHT22;3875;46.562;4.898;2023-02-01T18:32:55;7.40;79.90
7666;DHT22;3875;46.562;4.898;2023-02-01T18:35:22;7.40;80.10
7666;DHT22;3875;46.562;4.898;2023-02-01T18:37:49;7.40;80.10
7666;DHT22;3875;46.562;4.898;2023-02-01T18:40:18;7.40;80.00
7666;DHT22;3875;46.562;4.898;2023-02-01T18:42:44;7.40;80.10
7666;DHT22;3875;46.562;4.898;2023-02-01T18:45:39;7.40;80.30
7666;DHT22;3875;46.562;4.898;2023-02-01T18:48:07;7.40;80.10